Time;durP1;ratioP1;P1;durP2;ratioP2;P2;SDS_P1;SDS_P2;PMS_P1;PMS_P2;Temp;Humidity;BMP_temperature;BMP_pressure;BME280_temperature;BME280_humidity;BME280_pressure;Samples;Min_cycle;Max_cycle;Signal;HPM_P1;HPM_P2
2021/12/16 00:03:18;;;;;;;15.80;8.18;;;10.80;82.10;;;;;;4917790;28;92952;-70
2021/12/16 00:08:48;;;;;;;13.80;8.38;;;10.70;82.10;;;;;;4899158;28;92619;-72
2021/12/16 00:28:58;;;;;;;15.13;8.10;;;10.80;82.10;;;;;;4917218;28;92528;-72
2021/12/16 00:33:44;;;;;;;17.98;10.18;;;10.70;82.10;;;;;;4916149;28;95372;-73
2021/12/16 00:36:13;;;;;;;19.80;9.50;;;10.70;82.10;;;;;;4900075;28;95324;-73
2021/12/16 00:38:43;;;;;;;16.42;9.23;;;10.70;82.00;;;;;;4917375;28;92527;-73
2021/12/16 00:41:10;;;;;;;18.50;10.73;;;10.70;81.90;;;;;;4915785;28;92562;-69
2021/12/16 00:43:49;;;;;;;19.10;10.48;;;10.70;82.00;;;;;;4916830;28;93023;-70
2021/12/16 00:54:15;;;;;;;24.67;10.43;;;10.70;81.90;;;;;;4914960;28;94213;-70
2021/12/16 00:56:55;;;;;;;21.38;11.10;;;10.70;81.90;;;;;;4916386;28;93877;-70
2021/12/16 00:59:24;;;;;;;19.55;11.80;;;10.70;81.80;;;;;;4915885;28;95375;-70
2021/12/16 01:07:42;;;;;;;19.38;10.98;;;10.70;81.90;;;;;;4919734;28;92775;-70
2021/12/16 01:51:56;;;;;;;20.17;11.77;;;10.40;82.20;;;;;;4917929;28;95402;-70
2021/12/16 01:57:31;;;;;;;18.63;12.75;;;10.50;82.40;;;;;;4919056;28;92583;-70
2021/12/16 02:00:05;;;;;;;21.20;13.38;;;10.50;82.20;;;;;;4917855;28;95441;-70
2021/12/16 02:02:47;;;;;;;24.13;12.13;;;10.50;82.30;;;;;;4903033;28;95434;-70
2021/12/16 02:06:08;;;;;;;17.98;11.68;;;10.50;82.30;;;;;;4917711;28;92694;-70
2021/12/16 02:08:38;;;;;;;18.23;12.27;;;10.50;82.10;;;;;;4919350;28;92340;-70
2021/12/16 02:11:24;;;;;;;23.10;12.80;;;10.50;82.20;;;;;;4917394;28;95497;-69
2021/12/16 02:36:25;;;;;;;27.75;14.20;;;10.60;81.90;;;;;;4917042;28;94880;-70
2021/12/16 02:38:57;;;;;;;26.00;15.00;;;10.60;81.90;;;;;;4918711;28;92417;-69
2021/12/16 02:41:25;;;;;;;21.38;13.05;;;10.60;82.00;;;;;;4917282;28;91768;-70
2021/12/16 02:44:19;;;;;;;24.73;13.55;;;10.60;81.90;;;;;;4917165;28;96117;-70
2021/12/16 02:49:44;;;;;;;23.75;12.90;;;10.70;82.00;;;;;;4915934;28;95242;-70
2021/12/16 02:52:13;;;;;;;27.23;13.60;;;10.60;82.00;;;;;;4901581;28;92444;-70
2021/12/16 02:54:40;;;;;;;25.45;14.23;;;10.60;82.00;;;;;;4916840;28;95742;-70
2021/12/16 02:57:08;;;;;;;24.85;14.90;;;10.60;82.00;;;;;;4916957;28;95927;-70
2021/12/16 02:59:35;;;;;;;23.05;13.82;;;10.60;82.00;;;;;;4918143;28;92535;-70
2021/12/16 03:02:10;;;;;;;28.40;14.38;;;10.60;82.00;;;;;;4916845;28;92685;-70
2021/12/16 03:04:42;;;;;;;23.73;14.35;;;10.60;82.00;;;;;;4916826;28;95744;-70
2021/12/16 03:07:12;;;;;;;23.42;13.57;;;10.60;82.00;;;;;;4931829;28;93926;-70
2021/12/16 03:14:54;;;;;;;25.10;14.13;;;10.60;82.00;;;;;;4936378;28;95345;-70
2021/12/16 03:17:34;;;;;;;27.38;14.85;;;10.70;82.00;;;;;;4935336;28;98059;-70
2021/12/16 03:20:14;;;;;;;26.20;14.77;;;10.70;82.00;;;;;;4937424;28;92478;-70
2021/12/16 03:25:33;;;;;;;27.40;14.93;;;10.70;82.00;;;;;;4935009;28;94377;-70
2021/12/16 03:36:07;;;;;;;27.17;15.65;;;10.60;82.00;;;;;;4937267;28;93146;-70
2021/12/16 03:38:38;;;;;;;30.63;14.48;;;10.60;82.10;;;;;;4935383;28;95816;-70
2021/12/16 03:41:06;;;;;;;27.63;13.85;;;10.60;82.20;;;;;;4935613;28;96773;-73
2021/12/16 03:43:36;;;;;;;25.70;14.23;;;10.60;82.10;;;;;;4919645;28;92738;-73
2021/12/16 03:48:58;;;;;;;24.60;13.60;;;10.70;82.10;;;;;;4935412;28;95232;-73
2021/12/16 03:51:40;;;;;;;28.25;15.20;;;10.60;82.10;;;;;;4935357;28;92465;-73
2021/12/16 03:54:25;;;;;;;24.00;14.32;;;10.70;82.20;;;;;;4936948;28;92406;-72
2021/12/16 03:57:00;;;;;;;27.48;13.63;;;10.60;82.20;;;;;;4935459;28;95866;-73
2021/12/16 03:59:30;;;;;;;29.25;14.88;;;10.60;82.30;;;;;;4935603;28;95716;-69
2021/12/16 04:02:18;;;;;;;26.95;14.73;;;10.60;82.40;;;;;;4935413;28;92574;-70
2021/12/16 04:04:46;;;;;;;28.02;15.98;;;10.60;82.50;;;;;;4935306;28;92599;-70
2021/12/16 04:07:14;;;;;;;28.15;16.02;;;10.50;82.50;;;;;;4933711;28;97927;-70
2021/12/16 04:10:12;;;;;;;24.42;15.52;;;10.50;82.60;;;;;;4945996;28;96166;-69
2021/12/16 04:12:39;;;;;;;28.23;15.65;;;10.50;82.70;;;;;;4935015;28;92465;-70
2021/12/16 04:15:11;;;;;;;26.95;14.52;;;10.50;82.60;;;;;;4935363;28;92441;-70
2021/12/16 04:17:46;;;;;;;31.05;15.57;;;10.50;82.80;;;;;;4935244;28;95223;-70
2021/12/16 04:20:15;;;;;;;23.52;14.40;;;10.50;82.90;;;;;;4934501;28;95365;-70
2021/12/16 04:22:46;;;;;;;24.67;14.55;;;10.50;82.70;;;;;;4919090;28;92476;-70
2021/12/16 04:25:22;;;;;;;24.65;13.55;;;10.50;82.70;;;;;;4935497;28;91693;-70
2021/12/16 04:27:54;;;;;;;22.63;13.45;;;10.50;82.70;;;;;;4936200;28;94184;-70
2021/12/16 04:30:24;;;;;;;29.83;14.20;;;10.40;82.70;;;;;;4935089;28;94377;-70
2021/12/16 04:32:52;;;;;;;25.65;14.43;;;10.40;82.70;;;;;;4933743;28;94954;-70
2021/12/16 04:35:21;;;;;;;27.45;15.45;;;10.40;82.70;;;;;;4934711;28;92604;-70
2021/12/16 04:37:52;;;;;;;25.90;15.32;;;10.30;82.90;;;;;;4934036;28;95673;-70
2021/12/16 04:40:21;;;;;;;23.38;14.05;;;10.20;82.90;;;;;;4934656;28;95415;-70
2021/12/16 04:42:58;;;;;;;28.42;14.68;;;10.10;83.00;;;;;;4935035;28;92837;-70
2021/12/16 04:45:29;;;;;;;29.55;15.88;;;10.10;83.20;;;;;;4934783;28;92518;-70
2021/12/16 04:47:56;;;;;;;26.77;15.25;;;10.00;83.60;;;;;;4934419;28;96184;-70
2021/12/16 04:50:26;;;;;;;25.75;14.75;;;10.00;83.50;;;;;;4934717;28;93849;-70
2021/12/16 04:52:53;;;;;;;28.10;17.08;;;10.00;83.60;;;;;;4934585;28;92439;-70
2021/12/16 04:55:21;;;;;;;27.13;16.52;;;10.00;83.60;;;;;;4934686;28;92612;-69
2021/12/16 04:57:49;;;;;;;29.67;16.13;;;10.00;83.50;;;;;;4916937;28;98091;-70
2021/12/16 05:00:19;;;;;;;31.17;16.33;;;10.00;83.60;;;;;;4934432;28;97835;-70
2021/12/16 05:02:53;;;;;;;28.17;16.75;;;10.00;83.50;;;;;;4934697;28;92950;-70
2021/12/16 05:05:30;;;;;;;28.42;16.33;;;10.00;83.40;;;;;;4934323;28;92542;-70
2021/12/16 05:07:58;;;;;;;29.08;16.65;;;10.10;83.40;;;;;;4935614;28;93136;-70
2021/12/16 05:10:27;;;;;;;31.67;16.73;;;10.00;83.10;;;;;;4934170;28;95373;-70
2021/12/16 05:13:05;;;;;;;32.55;17.10;;;10.10;83.20;;;;;;4919761;28;93032;-70
2021/12/16 05:15:36;;;;;;;28.73;16.40;;;10.10;83.10;;;;;;4918716;28;91752;-70
2021/12/16 05:18:09;;;;;;;27.47;18.10;;;10.10;83.10;;;;;;4934342;28;95671;-72
2021/12/16 05:20:43;;;;;;;30.52;16.88;;;10.10;82.90;;;;;;4933651;28;94163;-72
2021/12/16 05:28:46;;;;;;;30.52;16.92;;;10.00;83.10;;;;;;4934037;28;95632;-72
2021/12/16 05:31:16;;;;;;;25.73;16.17;;;10.00;83.10;;;;;;4934252;28;95283;-73
2021/12/16 05:33:47;;;;;;;34.22;17.35;;;10.00;83.40;;;;;;4933895;28;92587;-72
2021/12/16 05:36:16;;;;;;;32.47;17.88;;;9.90;83.40;;;;;;4934129;28;92478;-70
2021/12/16 05:38:43;;;;;;;36.58;17.23;;;10.00;83.50;;;;;;4933822;28;95771;-72
2021/12/16 05:41:16;;;;;;;35.08;18.38;;;10.00;83.70;;;;;;4934308;28;95754;-73
2021/12/16 05:43:44;;;;;;;30.57;17.40;;;10.10;83.80;;;;;;4934033;28;92567;-70
2021/12/16 05:46:14;;;;;;;28.25;16.58;;;10.10;83.50;;;;;;4935334;28;92511;-70
2021/12/16 05:48:44;;;;;;;30.65;17.25;;;10.10;83.50;;;;;;4918989;28;96562;-70
2021/12/16 05:51:21;;;;;;;31.48;16.73;;;10.10;83.50;;;;;;4937042;28;98560;-70
2021/12/16 05:53:50;;;;;;;29.02;17.85;;;10.20;83.70;;;;;;4938875;28;92930;-70
2021/12/16 05:56:39;;;;;;;31.30;18.45;;;10.20;83.50;;;;;;4937254;28;92516;-70
2021/12/16 05:59:12;;;;;;;29.10;16.55;;;10.20;83.60;;;;;;4921187;28;96065;-70
2021/12/16 06:01:42;;;;;;;25.67;16.88;;;10.20;83.60;;;;;;4936994;28;95383;-70
2021/12/16 06:04:09;;;;;;;27.27;17.50;;;10.20;83.50;;;;;;4937003;28;92552;-70
2021/12/16 06:06:37;;;;;;;27.73;17.38;;;10.20;83.30;;;;;;4936994;28;91851;-70
2021/12/16 06:09:06;;;;;;;25.15;15.60;;;10.20;83.50;;;;;;4937004;28;95499;-70
2021/12/16 06:11:35;;;;;;;30.33;16.33;;;10.30;83.30;;;;;;4938472;28;92891;-70
2021/12/16 06:14:21;;;;;;;27.67;15.70;;;10.30;83.50;;;;;;4935489;28;96320;-70
2021/12/16 06:28:27;;;;;;;25.40;15.75;;;10.40;83.10;;;;;;4856146;28;92445;-70
2021/12/16 06:30:54;;;;;;;32.17;15.52;;;10.40;83.20;;;;;;4938139;28;93542;-70
2021/12/16 06:33:23;;;;;;;29.55;16.33;;;10.40;83.70;;;;;;4938459;28;92705;-70
2021/12/16 06:35:52;;;;;;;31.05;15.40;;;10.40;83.20;;;;;;4937736;28;92435;-70
2021/12/16 06:38:20;;;;;;;30.73;16.80;;;10.40;83.10;;;;;;4936623;28;92609;-70
2021/12/16 06:41:14;;;;;;;;;;;10.30;83.10;;;;;;4934810;28;95297;-70
2021/12/16 06:44:06;;;;;;;29.33;15.38;;;10.20;83.30;;;;;;4939111;28;95948;-72
2021/12/16 06:46:37;;;;;;;30.88;14.82;;;10.20;83.60;;;;;;4938268;28;92567;-73
2021/12/16 06:49:05;;;;;;;31.35;16.88;;;10.20;83.70;;;;;;4937635;28;92418;-70
2021/12/16 06:51:43;;;;;;;32.88;16.38;;;10.20;83.90;;;;;;4937645;28;93172;-69
2021/12/16 06:54:15;;;;;;;31.67;16.90;;;10.20;83.90;;;;;;4937888;28;93334;-70
2021/12/16 06:56:58;;;;;;;37.80;17.08;;;10.10;84.00;;;;;;4935869;28;92640;-70
2021/12/16 06:59:30;;;;;;;29.05;16.30;;;10.20;84.70;;;;;;4935724;28;91658;-73
2021/12/16 07:02:18;;;;;;;39.08;18.17;;;10.20;84.00;;;;;;4937323;28;93202;-73
2021/12/16 07:04:46;;;;;;;27.42;16.52;;;10.20;83.90;;;;;;4937377;28;92759;-73
2021/12/16 07:07:14;;;;;;;33.70;15.40;;;10.20;83.90;;;;;;4936174;28;94869;-73
2021/12/16 07:09:41;;;;;;;30.27;16.58;;;10.20;83.80;;;;;;4936110;28;92949;-73
2021/12/16 07:12:10;;;;;;;29.52;16.73;;;10.10;83.80;;;;;;4937512;28;93002;-72
2021/12/16 07:14:39;;;;;;;28.98;16.08;;;10.10;83.90;;;;;;4937087;28;100005;-73
2021/12/16 07:17:12;;;;;;;36.55;18.27;;;10.00;83.90;;;;;;4937136;28;92419;-72
2021/12/16 07:19:41;;;;;;;38.47;18.17;;;10.00;83.90;;;;;;4920211;28;92790;-73
2021/12/16 07:22:11;;;;;;;39.75;18.02;;;9.90;84.20;;;;;;4936743;28;93090;-72
2021/12/16 07:24:39;;;;;;;37.92;17.58;;;9.90;84.20;;;;;;4937713;28;93409;-70
2021/12/16 07:27:07;;;;;;;39.00;18.05;;;9.80;84.30;;;;;;4935417;28;92426;-70
2021/12/16 07:29:34;;;;;;;34.67;16.58;;;9.80;84.50;;;;;;4936830;28;92436;-70
2021/12/16 07:32:02;;;;;;;33.47;17.40;;;9.80;84.60;;;;;;4935644;28;95501;-70
2021/12/16 07:34:31;;;;;;;34.15;17.90;;;9.80;84.70;;;;;;4936882;28;96877;-70
2021/12/16 07:36:59;;;;;;;32.95;16.58;;;9.80;84.70;;;;;;4936826;28;92453;-70
2021/12/16 07:39:37;;;;;;;33.03;17.25;;;9.80;85.20;;;;;;4936003;28;92429;-70
2021/12/16 07:42:08;;;;;;;34.17;17.40;;;9.80;84.60;;;;;;4936783;28;93030;-69
2021/12/16 07:44:36;;;;;;;33.20;17.10;;;9.80;84.50;;;;;;4935914;28;92850;-70
2021/12/16 07:47:06;;;;;;;31.20;17.15;;;9.80;84.40;;;;;;4935403;28;92912;-70
2021/12/16 07:49:42;;;;;;;40.17;19.13;;;9.90;84.40;;;;;;4937379;28;91706;-69
2021/12/16 07:52:17;;;;;;;32.22;18.38;;;9.90;84.20;;;;;;4936669;28;93105;-70
2021/12/16 07:54:44;;;;;;;38.55;18.55;;;9.90;84.00;;;;;;4935399;28;94335;-70
2021/12/16 07:57:12;;;;;;;34.45;18.52;;;9.80;83.80;;;;;;4933537;28;104731;-70
2021/12/16 07:59:40;;;;;;;32.92;18.80;;;9.80;83.60;;;;;;4936851;28;92475;-70
2021/12/16 08:02:11;;;;;;;31.85;18.73;;;9.80;83.50;;;;;;4936253;28;93065;-70
2021/12/16 08:04:43;;;;;;;38.83;18.77;;;9.80;83.50;;;;;;4936955;28;93085;-70
2021/12/16 08:07:14;;;;;;;38.60;18.55;;;9.70;83.60;;;;;;4936726;28;92391;-70
2021/12/16 08:09:41;;;;;;;33.13;18.92;;;9.70;83.50;;;;;;4936705;28;92498;-70
2021/12/16 08:12:14;;;;;;;38.13;20.38;;;9.60;83.50;;;;;;4936076;28;93059;-70
2021/12/16 08:14:43;;;;;;;37.33;20.48;;;9.60;83.50;;;;;;4936885;28;93489;-70
2021/12/16 08:17:10;;;;;;;38.08;19.92;;;9.70;83.80;;;;;;4936357;28;92386;-70
2021/12/16 08:19:38;;;;;;;35.97;20.08;;;9.70;83.90;;;;;;4935177;28;92436;-70
2021/12/16 08:22:06;;;;;;;37.65;20.50;;;9.70;83.80;;;;;;4934455;28;95418;-72
2021/12/16 08:24:33;;;;;;;42.58;22.17;;;9.70;83.70;;;;;;4935561;28;112994;-73
2021/12/16 08:27:03;;;;;;;34.20;20.20;;;9.80;83.60;;;;;;4950555;28;92440;-73
2021/12/16 08:29:31;;;;;;;33.97;19.50;;;9.90;83.60;;;;;;4936514;28;92408;-72
2021/12/16 08:31:58;;;;;;;34.22;19.80;;;9.90;83.30;;;;;;4934472;28;94123;-72
2021/12/16 08:34:27;;;;;;;32.92;18.52;;;10.00;83.30;;;;;;4935954;28;93000;-73
2021/12/16 08:36:54;;;;;;;37.72;19.77;;;10.00;83.10;;;;;;4936141;28;92462;-72
2021/12/16 08:39:22;;;;;;;37.33;18.67;;;10.20;83.10;;;;;;4934996;28;91814;-73
2021/12/16 08:41:55;;;;;;;31.75;17.83;;;10.20;82.80;;;;;;4936067;28;92984;-73
2021/12/16 08:44:22;;;;;;;32.75;17.95;;;10.30;83.20;;;;;;4936296;28;92842;-73
2021/12/16 08:46:53;;;;;;;29.88;18.33;;;10.40;82.40;;;;;;4934865;28;94896;-73
2021/12/16 08:49:20;;;;;;;26.77;17.60;;;10.40;82.20;;;;;;4936247;28;92442;-73
2021/12/16 08:51:50;;;;;;;31.65;18.05;;;10.50;81.90;;;;;;4935829;28;93114;-73
2021/12/16 08:54:19;;;;;;;32.25;19.58;;;10.60;81.80;;;;;;4935862;28;92701;-72
2021/12/16 08:56:47;;;;;;;27.92;17.48;;;10.70;81.60;;;;;;4935726;28;92433;-73
2021/12/16 08:59:14;;;;;;;35.97;19.23;;;10.70;82.00;;;;;;4935858;28;92472;-73
2021/12/16 09:01:47;;;;;;;27.77;16.83;;;10.90;81.20;;;;;;4950470;28;102629;-72
2021/12/16 09:04:19;;;;;;;26.30;17.83;;;11.00;81.10;;;;;;4934859;28;92901;-73
2021/12/16 09:06:47;;;;;;;33.10;18.02;;;11.00;81.00;;;;;;4934766;28;92834;-73
2021/12/16 09:09:14;;;;;;;31.55;18.33;;;11.00;80.80;;;;;;4934175;28;92434;-72
2021/12/16 09:12:00;;;;;;;31.80;18.67;;;11.10;80.70;;;;;;4916991;28;96447;-72
2021/12/16 09:14:27;;;;;;;32.08;19.83;;;11.10;80.50;;;;;;4934116;28;96432;-72
2021/12/16 09:16:54;;;;;;;30.25;18.55;;;11.10;80.50;;;;;;4935812;28;92343;-72
2021/12/16 09:19:21;;;;;;;32.33;21.30;;;11.10;80.30;;;;;;4935258;28;92949;-73
2021/12/16 09:21:49;;;;;;;27.90;19.17;;;11.10;80.20;;;;;;4933541;28;95949;-72
2021/12/16 09:24:16;;;;;;;33.95;19.58;;;11.10;80.10;;;;;;4938465;28;92898;-73
2021/12/16 09:26:44;;;;;;;30.33;20.02;;;11.10;80.20;;;;;;4937584;28;92440;-73
2021/12/16 09:29:11;;;;;;;29.40;18.27;;;11.10;80.20;;;;;;4939219;28;91663;-73
2021/12/16 09:31:39;;;;;;;30.23;18.25;;;11.10;80.20;;;;;;4938714;28;93071;-73
2021/12/16 09:34:08;;;;;;;34.67;20.10;;;11.10;80.30;;;;;;4936998;28;108471;-73
2021/12/16 09:36:38;;;;;;;36.70;19.25;;;11.10;80.30;;;;;;4937814;28;95165;-72
2021/12/16 09:39:11;;;;;;;29.50;19.05;;;11.10;80.40;;;;;;4938777;28;92480;-73
2021/12/16 09:41:41;;;;;;;32.72;20.02;;;11.20;80.40;;;;;;4937526;28;94367;-73
2021/12/16 09:44:09;;;;;;;31.85;18.65;;;11.20;80.40;;;;;;4936872;28;93157;-73
2021/12/16 09:46:36;;;;;;;31.52;19.65;;;11.20;80.30;;;;;;4938941;28;92506;-70
2021/12/16 09:49:03;;;;;;;31.60;18.48;;;11.30;80.30;;;;;;4938388;28;92467;-70
2021/12/16 09:51:33;;;;;;;30.30;19.02;;;11.30;80.10;;;;;;4938631;28;93030;-73
2021/12/16 09:54:07;;;;;;;32.67;19.75;;;11.40;80.10;;;;;;4938630;28;92815;-72
2021/12/16 09:56:35;;;;;;;;;;;11.50;79.90;;;;;;4939204;28;92412;-72
2021/12/16 09:59:04;;;;;;;32.50;19.70;;;11.40;79.40;;;;;;4940359;28;92541;-73
2021/12/16 10:01:32;;;;;;;34.33;18.83;;;11.60;79.80;;;;;;4936979;28;95667;-72
2021/12/16 10:04:03;;;;;;;31.55;20.25;;;11.60;79.60;;;;;;4953236;28;96573;-71
2021/12/16 10:06:33;;;;;;;39.53;19.67;;;11.70;79.50;;;;;;4938260;28;92351;-70
2021/12/16 10:09:03;;;;;;;40.17;20.75;;;11.80;79.30;;;;;;4938264;28;92540;-70
2021/12/16 10:11:31;;;;;;;37.50;20.25;;;11.80;79.10;;;;;;4938502;28;92583;-70
2021/12/16 10:14:31;;;;;;;37.30;19.90;;;11.90;79.00;;;;;;4938118;28;92876;-70
2021/12/16 10:19:35;;;;;;;51.20;22.23;;;11.90;79.00;;;;;;4937391;28;91866;-69
2021/12/16 10:22:40;;;;;;;48.03;21.83;;;11.90;79.00;;;;;;4953014;28;92518;-70
2021/12/16 10:25:30;;;;;;;46.95;22.30;;;12.00;78.80;;;;;;4936555;28;94033;-70
2021/12/16 10:28:09;;;;;;;40.10;20.65;;;12.00;79.00;;;;;;4935118;28;94873;-70
2021/12/16 10:30:36;;;;;;;45.28;22.23;;;12.00;79.20;;;;;;4938334;28;92389;-70
2021/12/16 10:33:32;;;;;;;48.20;22.02;;;11.90;79.40;;;;;;4937665;28;93059;-70
2021/12/16 10:36:07;;;;;;;48.15;21.63;;;12.00;79.30;;;;;;4935771;28;94210;-70
2021/12/16 10:38:40;;;;;;;50.45;21.65;;;12.00;79.50;;;;;;4936905;28;92436;-72
2021/12/16 10:41:10;;;;;;;44.65;18.92;;;12.00;79.40;;;;;;4938260;28;92532;-73
2021/12/16 10:43:42;;;;;;;41.42;20.20;;;12.00;79.20;;;;;;4937619;28;94210;-70
2021/12/16 10:46:17;;;;;;;51.88;21.75;;;11.90;79.50;;;;;;4952828;28;92766;-73
2021/12/16 10:48:54;;;;;;;44.08;20.92;;;11.80;80.00;;;;;;4937897;28;93346;-73
2021/12/16 10:51:35;;;;;;;47.65;21.13;;;11.80;80.20;;;;;;4937903;28;92499;-70
2021/12/16 10:54:08;;;;;;;43.65;20.10;;;11.80;80.50;;;;;;4936421;28;95459;-70
2021/12/16 10:56:47;;;;;;;46.17;20.90;;;11.80;80.70;;;;;;4937542;28;96595;-70
2021/12/16 10:59:20;;;;;;;42.25;20.25;;;11.80;80.50;;;;;;4935813;28;92429;-69
2021/12/16 11:02:00;;;;;;;44.77;19.87;;;11.90;80.40;;;;;;4936430;28;92447;-70
2021/12/16 11:04:30;;;;;;;39.80;19.40;;;11.80;80.20;;;;;;4937339;28;93408;-70
2021/12/16 11:07:02;;;;;;;44.15;19.73;;;11.90;80.10;;;;;;4937130;28;92990;-70
2021/12/16 11:09:35;;;;;;;45.40;19.60;;;12.00;80.10;;;;;;4937108;28;92454;-72
2021/12/16 11:12:19;;;;;;;50.38;18.30;;;12.00;80.20;;;;;;4937838;28;91695;-73
2021/12/16 11:14:52;;;;;;;51.85;20.13;;;12.10;80.10;;;;;;4937396;28;93191;-73
2021/12/16 11:17:23;;;;;;;55.10;19.48;;;12.10;80.10;;;;;;4937293;28;92930;-74
2021/12/16 11:20:03;;;;;;;41.90;20.30;;;12.00;80.10;;;;;;4935881;28;94859;-73
2021/12/16 11:22:37;;;;;;;43.50;19.13;;;12.10;80.10;;;;;;4937163;28;92767;-72
2021/12/16 11:25:47;;;;;;;48.20;18.02;;;12.10;80.10;;;;;;4937090;28;93332;-70
2021/12/16 11:28:16;;;;;;;45.00;18.25;;;12.10;79.80;;;;;;4936755;28;92867;-70
2021/12/16 11:30:50;;;;;;;39.63;19.67;;;12.00;80.00;;;;;;4936953;28;92415;-72
2021/12/16 11:33:22;;;;;;;43.45;18.30;;;12.10;79.70;;;;;;4936971;28;92518;-72
2021/12/16 11:35:55;;;;;;;34.10;17.60;;;12.10;79.60;;;;;;4937431;28;92976;-70
2021/12/16 11:38:28;;;;;;;34.63;18.03;;;12.10;79.60;;;;;;4937214;28;92788;-70
2021/12/16 11:41:00;;;;;;;39.65;19.63;;;12.10;79.60;;;;;;4935410;28;92527;-73
2021/12/16 11:43:54;;;;;;;42.92;19.40;;;12.20;79.70;;;;;;4937129;28;92388;-73
2021/12/16 11:46:29;;;;;;;42.28;19.67;;;12.20;79.40;;;;;;4949602;28;96567;-73
2021/12/16 11:49:23;;;;;;;39.10;18.90;;;12.10;79.60;;;;;;4936699;28;95316;-73
2021/12/16 11:51:56;;;;;;;37.15;19.58;;;12.10;79.50;;;;;;4937133;28;92507;-70
2021/12/16 11:54:32;;;;;;;40.55;19.38;;;12.20;79.50;;;;;;4936734;28;92446;-70
2021/12/16 11:57:04;;;;;;;34.08;19.55;;;12.20;79.30;;;;;;4936870;28;92926;-72
2021/12/16 11:59:40;;;;;;;38.35;20.60;;;12.20;79.20;;;;;;4936499;28;92923;-72
2021/12/16 12:02:27;;;;;;;35.95;18.88;;;12.20;79.20;;;;;;4935569;28;92485;-70
2021/12/16 12:05:32;;;;;;;34.15;19.00;;;12.20;79.20;;;;;;4935752;28;91818;-70
2021/12/16 12:08:12;;;;;;;35.30;18.30;;;12.20;79.00;;;;;;4918785;28;96507;-70
2021/12/16 12:11:01;;;;;;;31.27;17.65;;;12.20;79.20;;;;;;4936622;28;93028;-70
2021/12/16 12:13:42;;;;;;;30.00;16.10;;;12.20;79.30;;;;;;4935316;28;94818;-70
2021/12/16 12:16:34;;;;;;;35.78;17.63;;;12.20;79.20;;;;;;4936591;28;93309;-72
2021/12/16 12:19:01;;;;;;;32.95;16.73;;;12.20;79.20;;;;;;4936403;28;93069;-70
2021/12/16 12:22:00;;;;;;;33.13;17.83;;;12.20;79.40;;;;;;4933430;28;96281;-70
2021/12/16 12:24:33;;;;;;;36.58;18.40;;;12.20;79.20;;;;;;4934669;28;92476;-70
2021/12/16 12:27:09;;;;;;;34.75;19.77;;;12.20;79.40;;;;;;4936336;28;92401;-70
2021/12/16 12:29:44;;;;;;;40.33;21.30;;;12.20;79.60;;;;;;4936295;28;92976;-70
2021/12/16 12:32:32;;;;;;;40.63;20.98;;;12.20;79.50;;;;;;4935870;28;91817;-72
2021/12/16 12:35:06;;;;;;;43.78;20.73;;;12.20;79.50;;;;;;4935011;28;92509;-73
2021/12/16 12:37:36;;;;;;;47.35;21.63;;;12.30;79.50;;;;;;4934121;28;93024;-73
2021/12/16 12:40:15;;;;;;;37.53;20.77;;;12.20;79.50;;;;;;4934734;28;96344;-73
2021/12/16 12:42:45;;;;;;;41.63;21.67;;;12.30;79.50;;;;;;4935617;28;96371;-73
2021/12/16 12:45:15;;;;;;;47.58;21.10;;;12.20;79.60;;;;;;4936029;28;92373;-73
2021/12/16 12:47:47;;;;;;;47.65;21.77;;;12.20;80.30;;;;;;4934378;28;92574;-73
2021/12/16 12:50:23;;;;;;;43.33;21.02;;;12.30;79.70;;;;;;4934503;28;94323;-73
2021/12/16 12:52:53;;;;;;;42.05;20.67;;;12.30;79.60;;;;;;4935967;28;92773;-73
2021/12/16 12:55:31;;;;;;;38.83;19.52;;;12.30;79.70;;;;;;4936388;28;92494;-73
2021/12/16 12:58:05;;;;;;;47.58;20.77;;;12.30;79.60;;;;;;4935492;28;91709;-73
2021/12/16 13:00:47;;;;;;;38.80;20.13;;;12.30;79.60;;;;;;4935918;28;92970;-73
2021/12/16 13:03:38;;;;;;;39.50;19.38;;;12.30;79.50;;;;;;4936093;28;92927;-73
2021/12/16 13:06:12;;;;;;;41.20;19.80;;;12.30;79.50;;;;;;4934889;28;94879;-73
2021/12/16 13:08:40;;;;;;;;;;;12.30;79.60;;;;;;4936013;28;92360;-73
2021/12/16 13:11:15;;;;;;;30.52;17.08;;;12.20;79.50;;;;;;4937343;28;92953;-73
2021/12/16 13:13:59;;;;;;;33.17;17.60;;;12.30;79.70;;;;;;4935360;28;92996;-73
2021/12/16 13:28:41;;;;;;;41.92;20.00;;;12.20;79.60;;;;;;4934141;28;92539;-73
2021/12/16 13:31:40;;;;;;;44.83;20.55;;;12.20;80.10;;;;;;4935701;28;92351;-73
2021/12/16 13:34:41;;;;;;;40.05;20.20;;;12.20;80.10;;;;;;4934437;28;95387;-73
2021/12/16 13:37:20;;;;;;;43.55;20.23;;;12.20;80.00;;;;;;4931481;28;95742;-73
2021/12/16 13:39:49;;;;;;;36.92;20.95;;;12.20;80.20;;;;;;4935372;28;92463;-73
2021/12/16 13:42:17;;;;;;;42.67;21.13;;;12.20;80.10;;;;;;4935411;28;92467;-73
2021/12/16 13:44:55;;;;;;;43.45;21.33;;;12.20;80.00;;;;;;4935086;28;96344;-73
2021/12/16 13:48:29;;;;;;;45.60;21.35;;;12.20;80.00;;;;;;4935157;28;93002;-73
2021/12/16 14:05:40;;;;;;;52.95;23.98;;;12.10;80.30;;;;;;4950077;28;92534;-73
2021/12/16 14:08:10;;;;;;;48.97;21.23;;;12.10;80.20;;;;;;4933694;28;96326;-73
2021/12/16 14:11:00;;;;;;;48.08;20.33;;;12.10;80.30;;;;;;4938436;28;92897;-73
2021/12/16 14:16:33;;;;;;;46.20;20.42;;;12.10;80.30;;;;;;4938843;28;92857;-73
2021/12/16 14:25:14;;;;;;;;;;;12.10;80.30;;;;;;4938822;28;92379;-73
2021/12/16 14:50:33;;;;;;;25.80;14.02;;;12.00;80.60;;;;;;4953016;28;91732;-69
2021/12/16 14:53:22;;;;;;;28.77;14.57;;;12.00;80.50;;;;;;4935916;28;94208;-70
2021/12/16 14:55:51;;;;;;;37.05;19.67;;;12.00;80.40;;;;;;4937413;28;94178;-73
2021/12/16 14:58:20;;;;;;;29.67;17.45;;;11.90;80.50;;;;;;4936519;28;94816;-73
2021/12/16 15:00:55;;;;;;;29.20;15.68;;;11.90;80.50;;;;;;4952748;28;92823;-72
2021/12/16 15:03:27;;;;;;;30.50;17.85;;;11.90;80.50;;;;;;4937839;28;92974;-73
2021/12/16 15:06:02;;;;;;;31.80;18.70;;;11.90;80.60;;;;;;4937502;28;92929;-73
2021/12/16 15:08:48;;;;;;;39.97;21.23;;;11.90;80.70;;;;;;4937824;28;92425;-73
2021/12/16 15:11:27;;;;;;;36.38;20.52;;;11.90;80.70;;;;;;4937491;28;92599;-73
2021/12/16 15:13:59;;;;;;;34.55;17.48;;;11.80;80.70;;;;;;4937305;28;92381;-73
2021/12/16 15:16:57;;;;;;;34.58;18.30;;;11.80;81.50;;;;;;4937986;28;92841;-73
2021/12/16 15:44:10;;;;;;;33.78;17.20;;;11.60;81.80;;;;;;4937323;28;91894;-73
2021/12/16 15:46:39;;;;;;;34.65;15.90;;;11.60;81.90;;;;;;4920208;28;94245;-73
2021/12/16 15:49:07;;;;;;;32.38;16.88;;;11.60;82.00;;;;;;4936120;28;103808;-73
2021/12/16 15:51:35;;;;;;;37.30;16.90;;;11.60;82.00;;;;;;4935588;28;94821;-70
2021/12/16 15:54:21;;;;;;;33.88;17.30;;;11.60;82.00;;;;;;4932815;28;92419;-70
2021/12/16 15:56:50;;;;;;;39.95;17.60;;;11.60;82.10;;;;;;4936441;28;93021;-70
2021/12/16 15:59:21;;;;;;;39.20;17.67;;;11.60;82.10;;;;;;4951626;28;92783;-70
2021/12/16 16:01:51;;;;;;;44.33;18.50;;;11.60;82.20;;;;;;4951360;28;92482;-69
2021/12/16 16:04:28;;;;;;;42.55;20.40;;;11.60;82.40;;;;;;4932581;28;92523;-70
2021/12/16 16:06:59;;;;;;;48.22;20.55;;;11.60;82.40;;;;;;4936472;28;93158;-70
2021/12/16 16:09:38;;;;;;;43.75;19.65;;;11.50;82.60;;;;;;4936919;28;92742;-70
2021/12/16 16:12:11;;;;;;;36.28;17.30;;;11.50;82.80;;;;;;4936221;28;92379;-73
2021/12/16 16:14:44;;;;;;;49.90;19.83;;;11.40;83.10;;;;;;4936453;28;92490;-73
2021/12/16 16:17:16;;;;;;;43.05;17.88;;;11.30;83.70;;;;;;4935254;28;94953;-73
2021/12/16 16:19:45;;;;;;;41.83;17.90;;;11.30;83.90;;;;;;4936540;28;95256;-73
2021/12/16 16:22:12;;;;;;;30.42;15.73;;;11.20;83.80;;;;;;4935925;28;92486;-73
2021/12/16 16:24:44;;;;;;;40.22;18.10;;;11.20;84.00;;;;;;4934985;28;92428;-73
2021/12/16 16:27:19;;;;;;;39.08;16.92;;;11.10;84.10;;;;;;4951324;28;93092;-73
2021/12/16 16:29:50;;;;;;;39.95;18.85;;;11.10;84.20;;;;;;4936349;28;92910;-73
2021/12/16 16:32:17;;;;;;;48.17;19.02;;;11.10;84.30;;;;;;4936429;28;92343;-73
2021/12/16 16:34:49;;;;;;;53.38;19.65;;;11.10;84.30;;;;;;4936712;28;91683;-73
2021/12/16 16:37:23;;;;;;;58.92;20.38;;;11.10;84.30;;;;;;4935970;28;93240;-73
2021/12/16 16:39:54;;;;;;;54.65;20.05;;;11.10;84.60;;;;;;4935885;28;93397;-73
2021/12/16 16:42:29;;;;;;;49.80;18.90;;;11.00;85.00;;;;;;4935120;28;94829;-73
2021/12/16 16:44:57;;;;;;;37.28;16.83;;;11.00;84.90;;;;;;4936126;28;92429;-73
2021/12/16 16:47:37;;;;;;;40.35;17.05;;;11.00;85.10;;;;;;4935312;28;102428;-73
2021/12/16 16:50:09;;;;;;;44.22;16.65;;;10.80;85.40;;;;;;4935841;28;93098;-73
2021/12/16 16:52:42;;;;;;;42.70;16.95;;;10.80;85.50;;;;;;4934670;28;92481;-70